sensor_id;sensor_type;location;lat;lon;timestamp;pressure;altitude;pressure_sealevel;temperature;humidity
63715;BME280;49858;48.956;9.076;2023-04-02T00:01:41;97954.34;;;10.53;100.00
63715;BME280;49858;48.956;9.076;2023-04-02T00:04:15;97958.34;;;10.55;100.00
63715;BME280;49858;48.956;9.076;2023-04-02T00:06:53;97961.38;;;10.46;100.00
63715;BME280;49858;48.956;9.076;2023-04-02T00:09:30;97960.28;;;10.55;100.00
63715;BME280;49858;48.956;9.076;2023-04-02T00:12:15;97966.16;;;10.53;100.00
63715;BME280;49858;48.956;9.076;2023-04-02T00:14:45;97961.31;;;10.77;100.00
63715;BME280;49858;48.956;9.076;2023-04-02T00:17:13;97968.88;;;10.49;100.00
63715;BME280;49858;48.956;9.076;2023-04-02T00:19:45;97965.19;;;10.72;100.00
63715;BME280;49858;48.956;9.076;2023-04-02T00:22:18;97966.03;;;10.42;100.00
63715;BME280;49858;48.956;9.076;2023-04-02T00:24:49;97975.03;;;11.07;100.00
63715;BME280;49858;48.956;9.076;2023-04-02T00:27:19;97979.75;;;11.91;100.00
63715;BME280;49858;48.956;9.076;2023-04-02T00:29:48;97979.78;;;10.42;100.00
63715;BME280;49858;48.956;9.076;2023-04-02T00:32:20;97982.50;;;10.16;100.00
63715;BME280;49858;48.956;9.076;2023-04-02T00:34:49;97990.66;;;10.09;100.00
63715;BME280;49858;48.956;9.076;2023-04-02T00:37:20;97990.06;;;10.49;100.00
63715;BME280;49858;48.956;9.076;2023-04-02T00:39:53;97985.91;;;10.96;100.00
63715;BME280;49858;48.956;9.076;2023-04-02T00:42:23;97990.78;;;11.10;100.00
63715;BME280;49858;48.956;9.076;2023-04-02T00:44:52;97987.03;;;11.69;100.00
63715;BME280;49858;48.956;9.076;2023-04-02T00:47:25;97976.63;;;12.59;100.00
63715;BME280;49858;48.956;9.076;2023-04-02T00:49:58;97983.63;;;11.83;100.00
63715;BME280;49858;48.956;9.076;2023-04-02T00:52:30;97990.19;;;12.19;100.00
63715;BME280;49858;48.956;9.076;2023-04-02T00:55:04;97974.03;;;12.14;100.00
63715;BME280;49858;48.956;9.076;2023-04-02T00:57:33;97983.56;;;10.34;100.00
63715;BME280;49858;48.956;9.076;2023-04-02T01:00:17;97995.25;;;11.21;100.00
63715;BME280;49858;48.956;9.076;2023-04-02T01:03:14;97989.00;;;11.69;100.00
63715;BME280;49858;48.956;9.076;2023-04-02T01:05:58;97994.06;;;11.63;100.00
63715;BME280;49858;48.956;9.076;2023-04-02T01:08:36;97988.13;;;11.58;100.00
63715;BME280;49858;48.956;9.076;2023-04-02T01:11:19;97997.66;;;11.67;100.00
63715;BME280;49858;48.956;9.076;2023-04-02T01:13:54;98004.59;;;10.23;100.00
63715;BME280;49858;48.956;9.076;2023-04-02T01:16:32;98015.19;;;10.21;100.00
63715;BME280;49858;48.956;9.076;2023-04-02T01:19:14;98024.53;;;9.90;100.00
63715;BME280;49858;48.956;9.076;2023-04-02T01:21:53;98020.22;;;9.92;100.00
63715;BME280;49858;48.956;9.076;2023-04-02T01:24:29;98024.69;;;10.01;100.00
63715;BME280;49858;48.956;9.076;2023-04-02T01:26:58;98028.38;;;9.85;100.00
63715;BME280;49858;48.956;9.076;2023-04-02T01:29:32;98030.09;;;9.97;100.00
63715;BME280;49858;48.956;9.076;2023-04-02T01:32:04;98037.78;;;9.84;100.00
63715;BME280;49858;48.956;9.076;2023-04-02T01:34:34;98028.81;;;10.14;100.00
63715;BME280;49858;48.956;9.076;2023-04-02T01:37:09;98029.13;;;10.09;100.00
63715;BME280;49858;48.956;9.076;2023-04-02T01:39:50;98028.72;;;10.60;100.00
63715;BME280;49858;48.956;9.076;2023-04-02T01:42:23;98026.31;;;10.28;100.00
63715;BME280;49858;48.956;9.076;2023-04-02T01:45:00;98028.22;;;11.55;100.00
63715;BME280;49858;48.956;9.076;2023-04-02T01:47:29;98017.97;;;11.52;100.00
63715;BME280;49858;48.956;9.076;2023-04-02T01:50:01;98025.06;;;10.52;100.00
63715;BME280;49858;48.956;9.076;2023-04-02T01:52:35;98028.41;;;10.38;100.00
63715;BME280;49858;48.956;9.076;2023-04-02T01:55:07;98038.13;;;10.59;100.00
63715;BME280;49858;48.956;9.076;2023-04-02T01:57:36;98036.44;;;11.11;100.00
63715;BME280;49858;48.956;9.076;2023-04-02T02:00:07;98028.69;;;12.09;100.00
63715;BME280;49858;48.956;9.076;2023-04-02T02:02:40;98034.13;;;11.16;100.00
63715;BME280;49858;48.956;9.076;2023-04-02T02:05:11;98030.81;;;11.04;100.00
63715;BME280;49858;48.956;9.076;2023-04-02T02:07:43;98042.09;;;11.29;100.00
63715;BME280;49858;48.956;9.076;2023-04-02T02:10:16;98025.91;;;11.20;100.00
63715;BME280;49858;48.956;9.076;2023-04-02T02:12:44;98033.88;;;11.32;100.00
63715;BME280;49858;48.956;9.076;2023-04-02T02:15:17;98032.53;;;12.48;100.00
63715;BME280;49858;48.956;9.076;2023-04-02T02:17:46;98036.19;;;12.05;100.00
63715;BME280;49858;48.956;9.076;2023-04-02T02:20:14;98029.47;;;12.06;100.00
63715;BME280;49858;48.956;9.076;2023-04-02T02:22:45;98034.81;;;12.36;100.00
63715;BME280;49858;48.956;9.076;2023-04-02T02:25:15;98033.34;;;11.97;100.00
63715;BME280;49858;48.956;9.076;2023-04-02T02:27:49;98039.19;;;12.44;100.00
63715;BME280;49858;48.956;9.076;2023-04-02T02:30:26;98042.16;;;11.73;100.00
63715;BME280;49858;48.956;9.076;2023-04-02T02:33:00;98045.03;;;11.09;100.00
63715;BME280;49858;48.956;9.076;2023-04-02T02:35:33;98046.31;;;11.93;100.00
63715;BME280;49858;48.956;9.076;2023-04-02T02:38:24;98052.34;;;11.28;100.00
63715;BME280;49858;48.956;9.076;2023-04-02T02:41:03;98053.75;;;11.15;100.00
63715;BME280;49858;48.956;9.076;2023-04-02T02:43:34;98055.56;;;11.37;100.00
63715;BME280;49858;48.956;9.076;2023-04-02T02:46:09;98061.13;;;10.73;100.00
63715;BME280;49858;48.956;9.076;2023-04-02T02:48:40;98070.34;;;10.88;100.00
63715;BME280;49858;48.956;9.076;2023-04-02T02:51:16;98062.81;;;11.52;100.00
63715;BME280;49858;48.956;9.076;2023-04-02T02:53:50;98071.47;;;11.88;100.00
63715;BME280;49858;48.956;9.076;2023-04-02T02:56:21;98071.69;;;11.76;100.00
63715;BME280;49858;48.956;9.076;2023-04-02T02:58:51;98070.91;;;11.75;100.00
63715;BME280;49858;48.956;9.076;2023-04-02T03:01:28;98068.91;;;12.10;100.00
63715;BME280;49858;48.956;9.076;2023-04-02T03:04:02;98070.72;;;11.95;100.00
63715;BME280;49858;48.956;9.076;2023-04-02T03:06:30;98070.88;;;10.97;100.00
63715;BME280;49858;48.956;9.076;2023-04-02T03:09:02;98082.16;;;10.59;100.00
63715;BME280;49858;48.956;9.076;2023-04-02T03:11:40;98089.44;;;10.47;100.00
63715;BME280;49858;48.956;9.076;2023-04-02T03:14:21;98089.09;;;10.03;100.00
63715;BME280;49858;48.956;9.076;2023-04-02T03:16:58;98100.28;;;10.14;100.00
63715;BME280;49858;48.956;9.076;2023-04-02T03:19:31;98105.03;;;10.17;100.00
63715;BME280;49858;48.956;9.076;2023-04-02T03:22:05;98102.94;;;10.10;100.00
63715;BME280;49858;48.956;9.076;2023-04-02T03:24:46;98103.69;;;10.30;100.00
63715;BME280;49858;48.956;9.076;2023-04-02T03:27:18;98114.22;;;10.51;100.00
63715;BME280;49858;48.956;9.076;2023-04-02T03:29:57;98107.53;;;10.26;100.00
63715;BME280;49858;48.956;9.076;2023-04-02T03:32:33;98110.47;;;9.90;100.00
63715;BME280;49858;48.956;9.076;2023-04-02T03:35:05;98104.97;;;9.67;100.00
63715;BME280;49858;48.956;9.076;2023-04-02T03:37:40;98114.94;;;9.98;100.00
63715;BME280;49858;48.956;9.076;2023-04-02T03:40:16;98117.94;;;10.36;100.00
63715;BME280;49858;48.956;9.076;2023-04-02T03:42:48;98120.19;;;9.84;100.00
63715;BME280;49858;48.956;9.076;2023-04-02T03:45:20;98121.16;;;9.95;100.00
63715;BME280;49858;48.956;9.076;2023-04-02T03:47:54;98133.47;;;9.82;100.00
63715;BME280;49858;48.956;9.076;2023-04-02T03:50:29;98138.72;;;9.68;100.00
63715;BME280;49858;48.956;9.076;2023-04-02T03:53:00;98138.28;;;9.66;100.00
63715;BME280;49858;48.956;9.076;2023-04-02T03:55:32;98142.03;;;9.58;100.00
63715;BME280;49858;48.956;9.076;2023-04-02T03:58:06;98154.84;;;9.11;100.00
63715;BME280;49858;48.956;9.076;2023-04-02T04:00:42;98162.50;;;9.21;100.00
63715;BME280;49858;48.956;9.076;2023-04-02T04:03:17;98160.03;;;9.16;100.00
63715;BME280;49858;48.956;9.076;2023-04-02T04:05:50;98178.16;;;9.21;100.00
63715;BME280;49858;48.956;9.076;2023-04-02T04:08:22;98179.31;;;9.20;100.00
63715;BME280;49858;48.956;9.076;2023-04-02T04:10:55;98194.31;;;9.07;100.00
63715;BME280;49858;48.956;9.076;2023-04-02T04:13:30;98193.84;;;8.85;100.00
63715;BME280;49858;48.956;9.076;2023-04-02T04:16:04;98203.16;;;8.81;100.00
63715;BME280;49858;48.956;9.076;2023-04-02T04:18:40;98214.66;;;8.86;100.00
63715;BME280;49858;48.956;9.076;2023-04-02T04:21:18;98220.22;;;8.90;100.00
63715;BME280;49858;48.956;9.076;2023-04-02T04:24:00;98225.69;;;8.90;100.00
63715;BME280;49858;48.956;9.076;2023-04-02T04:26:37;98230.03;;;8.91;100.00
63715;BME280;49858;48.956;9.076;2023-04-02T04:29:15;98231.06;;;9.02;100.00
63715;BME280;49858;48.956;9.076;2023-04-02T04:31:46;98231.91;;;8.87;100.00
63715;BME280;49858;48.956;9.076;2023-04-02T04:34:22;98241.19;;;8.82;100.00
63715;BME280;49858;48.956;9.076;2023-04-02T04:36:58;98242.06;;;8.86;100.00
63715;BME280;49858;48.956;9.076;2023-04-02T04:39:41;98244.44;;;9.04;100.00
63715;BME280;49858;48.956;9.076;2023-04-02T04:42:17;98242.69;;;8.95;100.00
63715;BME280;49858;48.956;9.076;2023-04-02T04:44:50;98248.16;;;8.80;100.00
63715;BME280;49858;48.956;9.076;2023-04-02T04:47:25;98257.09;;;8.61;100.00
63715;BME280;49858;48.956;9.076;2023-04-02T04:50:03;98265.94;;;8.70;100.00
63715;BME280;49858;48.956;9.076;2023-04-02T04:52:39;98268.00;;;8.73;100.00
63715;BME280;49858;48.956;9.076;2023-04-02T04:55:23;98271.63;;;8.77;100.00
63715;BME280;49858;48.956;9.076;2023-04-02T04:57:54;98270.38;;;8.59;100.00
63715;BME280;49858;48.956;9.076;2023-04-02T05:00:27;98276.13;;;8.85;100.00
63715;BME280;49858;48.956;9.076;2023-04-02T05:03:04;98266.44;;;9.07;100.00
63715;BME280;49858;48.956;9.076;2023-04-02T05:05:38;98276.91;;;9.02;100.00
63715;BME280;49858;48.956;9.076;2023-04-02T05:08:13;98280.75;;;9.32;100.00
63715;BME280;49858;48.956;9.076;2023-04-02T05:10:44;98279.81;;;9.79;100.00
63715;BME280;49858;48.956;9.076;2023-04-02T05:13:17;98268.16;;;9.66;100.00
63715;BME280;49858;48.956;9.076;2023-04-02T05:15:52;98268.78;;;10.37;100.00
63715;BME280;49858;48.956;9.076;2023-04-02T05:18:26;98266.50;;;10.89;100.00
63715;BME280;49858;48.956;9.076;2023-04-02T05:21:02;98264.81;;;11.07;100.00
63715;BME280;49858;48.956;9.076;2023-04-02T05:23:37;98260.72;;;11.20;100.00
63715;BME280;49858;48.956;9.076;2023-04-02T05:26:15;98263.09;;;11.52;100.00
63715;BME280;49858;48.956;9.076;2023-04-02T05:28:49;98250.69;;;11.35;100.00
63715;BME280;49858;48.956;9.076;2023-04-02T05:31:22;98254.50;;;11.27;100.00
63715;BME280;49858;48.956;9.076;2023-04-02T05:33:54;98259.41;;;11.41;100.00
63715;BME280;49858;48.956;9.076;2023-04-02T05:36:26;98261.97;;;11.57;100.00
63715;BME280;49858;48.956;9.076;2023-04-02T05:38:58;98260.63;;;11.73;100.00
63715;BME280;49858;48.956;9.076;2023-04-02T05:41:36;98263.66;;;11.95;100.00
63715;BME280;49858;48.956;9.076;2023-04-02T05:44:09;98269.81;;;11.24;100.00
63715;BME280;49858;48.956;9.076;2023-04-02T05:46:44;98273.66;;;11.46;100.00
63715;BME280;49858;48.956;9.076;2023-04-02T05:49:20;98276.94;;;11.03;100.00
63715;BME280;49858;48.956;9.076;2023-04-02T05:51:56;98286.88;;;10.84;100.00
63715;BME280;49858;48.956;9.076;2023-04-02T05:54:29;98294.19;;;10.77;100.00
63715;BME280;49858;48.956;9.076;2023-04-02T05:57:02;98295.09;;;11.34;100.00
63715;BME280;49858;48.956;9.076;2023-04-02T05:59:35;98298.09;;;11.51;100.00
63715;BME280;49858;48.956;9.076;2023-04-02T06:02:06;98296.19;;;11.25;100.00
63715;BME280;49858;48.956;9.076;2023-04-02T06:04:43;98291.44;;;11.52;100.00
63715;BME280;49858;48.956;9.076;2023-04-02T06:07:17;98288.78;;;11.86;100.00
63715;BME280;49858;48.956;9.076;2023-04-02T06:09:53;98303.59;;;11.48;100.00
63715;BME280;49858;48.956;9.076;2023-04-02T06:12:28;98301.19;;;11.46;100.00
63715;BME280;49858;48.956;9.076;2023-04-02T06:14:59;98308.00;;;11.56;100.00
63715;BME280;49858;48.956;9.076;2023-04-02T06:17:32;98303.78;;;11.36;100.00
63715;BME280;49858;48.956;9.076;2023-04-02T06:20:14;98310.88;;;11.63;100.00
63715;BME280;49858;48.956;9.076;2023-04-02T06:22:47;98305.00;;;11.38;100.00
63715;BME280;49858;48.956;9.076;2023-04-02T06:25:21;98309.31;;;11.62;100.00
63715;BME280;49858;48.956;9.076;2023-04-02T06:27:53;98312.88;;;11.66;100.00
63715;BME280;49858;48.956;9.076;2023-04-02T06:30:26;98321.41;;;11.84;100.00
63715;BME280;49858;48.956;9.076;2023-04-02T06:32:55;98324.94;;;11.05;100.00
63715;BME280;49858;48.956;9.076;2023-04-02T06:35:24;98333.56;;;11.04;100.00
63715;BME280;49858;48.956;9.076;2023-04-02T06:38:01;98328.63;;;10.67;100.00
63715;BME280;49858;48.956;9.076;2023-04-02T06:40:38;98340.84;;;10.69;100.00
63715;BME280;49858;48.956;9.076;2023-04-02T06:43:34;98349.78;;;11.09;100.00
63715;BME280;49858;48.956;9.076;2023-04-02T06:46:24;98351.31;;;10.83;100.00
63715;BME280;49858;48.956;9.076;2023-04-02T06:49:08;98355.59;;;11.04;100.00
63715;BME280;49858;48.956;9.076;2023-04-02T06:51:41;98361.38;;;10.33;100.00
63715;BME280;49858;48.956;9.076;2023-04-02T06:54:15;98372.47;;;9.82;100.00
63715;BME280;49858;48.956;9.076;2023-04-02T06:56:50;98373.22;;;9.98;100.00
63715;BME280;49858;48.956;9.076;2023-04-02T06:59:24;98384.25;;;10.37;100.00
63715;BME280;49858;48.956;9.076;2023-04-02T07:01:57;98378.28;;;10.16;100.00
63715;BME280;49858;48.956;9.076;2023-04-02T07:04:29;98384.06;;;10.69;100.00
63715;BME280;49858;48.956;9.076;2023-04-02T07:06:58;98384.41;;;10.44;100.00
63715;BME280;49858;48.956;9.076;2023-04-02T07:09:31;98375.09;;;10.95;100.00
63715;BME280;49858;48.956;9.076;2023-04-02T07:12:01;98370.38;;;10.95;100.00
63715;BME280;49858;48.956;9.076;2023-04-02T07:14:29;98380.88;;;11.59;100.00
63715;BME280;49858;48.956;9.076;2023-04-02T07:16:57;98387.75;;;10.99;100.00
63715;BME280;49858;48.956;9.076;2023-04-02T07:19:24;98385.06;;;10.80;100.00
63715;BME280;49858;48.956;9.076;2023-04-02T07:21:55;98397.56;;;10.35;100.00
63715;BME280;49858;48.956;9.076;2023-04-02T07:24:28;98403.28;;;10.27;100.00
63715;BME280;49858;48.956;9.076;2023-04-02T07:26:57;98406.94;;;10.96;100.00
63715;BME280;49858;48.956;9.076;2023-04-02T07:29:25;98403.00;;;10.16;100.00
63715;BME280;49858;48.956;9.076;2023-04-02T07:31:53;98415.28;;;10.57;100.00
63715;BME280;49858;48.956;9.076;2023-04-02T07:34:22;98418.13;;;10.06;100.00
63715;BME280;49858;48.956;9.076;2023-04-02T07:36:50;98422.06;;;10.83;100.00
63715;BME280;49858;48.956;9.076;2023-04-02T07:39:18;98422.59;;;10.69;100.00
63715;BME280;49858;48.956;9.076;2023-04-02T07:41:53;98430.78;;;10.11;100.00
63715;BME280;49858;48.956;9.076;2023-04-02T07:44:23;98430.56;;;10.35;100.00
63715;BME280;49858;48.956;9.076;2023-04-02T07:46:51;98434.47;;;10.96;100.00
63715;BME280;49858;48.956;9.076;2023-04-02T07:49:19;98430.00;;;11.57;100.00
63715;BME280;49858;48.956;9.076;2023-04-02T07:51:48;98440.44;;;11.21;100.00
63715;BME280;49858;48.956;9.076;2023-04-02T07:54:15;98442.81;;;10.99;100.00
63715;BME280;49858;48.956;9.076;2023-04-02T07:56:43;98449.13;;;11.46;100.00
63715;BME280;49858;48.956;9.076;2023-04-02T07:59:11;98441.16;;;12.17;100.00
63715;BME280;49858;48.956;9.076;2023-04-02T08:01:40;98448.53;;;12.69;100.00
63715;BME280;49858;48.956;9.076;2023-04-02T08:04:16;98449.06;;;11.42;100.00
63715;BME280;49858;48.956;9.076;2023-04-02T08:06:45;98449.69;;;12.35;100.00
63715;BME280;49858;48.956;9.076;2023-04-02T08:09:13;98449.09;;;11.00;100.00
63715;BME280;49858;48.956;9.076;2023-04-02T08:11:42;98454.13;;;12.13;100.00
63715;BME280;49858;48.956;9.076;2023-04-02T08:14:10;98457.31;;;11.65;100.00
63715;BME280;49858;48.956;9.076;2023-04-02T08:16:47;98463.06;;;12.63;100.00
63715;BME280;49858;48.956;9.076;2023-04-02T08:19:16;98449.84;;;13.16;100.00
63715;BME280;49858;48.956;9.076;2023-04-02T08:21:44;98463.75;;;12.56;100.00
63715;BME280;49858;48.956;9.076;2023-04-02T08:24:15;98467.31;;;12.57;100.00
63715;BME280;49858;48.956;9.076;2023-04-02T08:26:44;98465.69;;;12.52;100.00
63715;BME280;49858;48.956;9.076;2023-04-02T08:29:13;98472.56;;;13.02;100.00
63715;BME280;49858;48.956;9.076;2023-04-02T08:31:41;98464.19;;;12.92;100.00
63715;BME280;49858;48.956;9.076;2023-04-02T08:34:10;98478.56;;;12.14;100.00
63715;BME280;49858;48.956;9.076;2023-04-02T08:36:39;98480.91;;;11.63;100.00
63715;BME280;49858;48.956;9.076;2023-04-02T08:39:08;98480.44;;;11.61;100.00
63715;BME280;49858;48.956;9.076;2023-04-02T08:41:42;98486.38;;;11.17;100.00
63715;BME280;49858;48.956;9.076;2023-04-02T08:44:32;98490.38;;;11.42;100.00
63715;BME280;49858;48.956;9.076;2023-04-02T08:47:05;98501.16;;;11.51;100.00
63715;BME280;49858;48.956;9.076;2023-04-02T08:49:39;98487.31;;;10.82;100.00
63715;BME280;49858;48.956;9.076;2023-04-02T08:52:19;98496.56;;;11.59;100.00
63715;BME280;49858;48.956;9.076;2023-04-02T08:54:48;98504.91;;;11.39;100.00
63715;BME280;49858;48.956;9.076;2023-04-02T08:57:25;98499.66;;;11.57;100.00
63715;BME280;49858;48.956;9.076;2023-04-02T08:59:59;98515.91;;;12.65;100.00
63715;BME280;49858;48.956;9.076;2023-04-02T09:02:36;98507.34;;;12.17;100.00
63715;BME280;49858;48.956;9.076;2023-04-02T09:05:15;98506.84;;;11.85;100.00
63715;BME280;49858;48.956;9.076;2023-04-02T09:07:45;98512.16;;;11.51;100.00
63715;BME280;49858;48.956;9.076;2023-04-02T09:10:15;98521.31;;;10.93;100.00
63715;BME280;49858;48.956;9.076;2023-04-02T09:12:46;98522.59;;;11.84;100.00
63715;BME280;49858;48.956;9.076;2023-04-02T09:15:24;98522.97;;;11.83;100.00
63715;BME280;49858;48.956;9.076;2023-04-02T09:17:56;98532.28;;;11.32;100.00
63715;BME280;49858;48.956;9.076;2023-04-02T09:20:28;98530.47;;;12.09;100.00
63715;BME280;49858;48.956;9.076;2023-04-02T09:22:56;98524.78;;;11.98;100.00
63715;BME280;49858;48.956;9.076;2023-04-02T09:25:26;98531.41;;;13.07;100.00
63715;BME280;49858;48.956;9.076;2023-04-02T09:27:56;98523.72;;;13.64;100.00
63715;BME280;49858;48.956;9.076;2023-04-02T09:30:36;98538.75;;;12.62;100.00
63715;BME280;49858;48.956;9.076;2023-04-02T09:33:08;98538.81;;;12.99;100.00
63715;BME280;49858;48.956;9.076;2023-04-02T09:35:53;98537.53;;;13.23;100.00
63715;BME280;49858;48.956;9.076;2023-04-02T09:38:22;98536.75;;;14.07;100.00
63715;BME280;49858;48.956;9.076;2023-04-02T09:40:57;98535.22;;;14.14;100.00
63715;BME280;49858;48.956;9.076;2023-04-02T09:43:27;98540.25;;;13.57;100.00
63715;BME280;49858;48.956;9.076;2023-04-02T09:46:00;98545.28;;;13.88;100.00
63715;BME280;49858;48.956;9.076;2023-04-02T09:48:31;98548.19;;;13.62;100.00
63715;BME280;49858;48.956;9.076;2023-04-02T09:51:10;98547.63;;;12.78;100.00
63715;BME280;49858;48.956;9.076;2023-04-02T09:53:39;98562.22;;;13.09;100.00
63715;BME280;49858;48.956;9.076;2023-04-02T09:56:19;98560.03;;;12.65;100.00
63715;BME280;49858;48.956;9.076;2023-04-02T09:59:01;98568.84;;;12.74;100.00
63715;BME280;49858;48.956;9.076;2023-04-02T10:01:31;98571.88;;;12.12;100.00
63715;BME280;49858;48.956;9.076;2023-04-02T10:04:01;98577.47;;;13.66;100.00
63715;BME280;49858;48.956;9.076;2023-04-02T10:06:32;98573.06;;;13.62;100.00
63715;BME280;49858;48.956;9.076;2023-04-02T10:09:18;98572.75;;;14.15;100.00
63715;BME280;49858;48.956;9.076;2023-04-02T10:11:47;98578.16;;;14.00;100.00
63715;BME280;49858;48.956;9.076;2023-04-02T10:14:18;98578.84;;;13.46;100.00
63715;BME280;49858;48.956;9.076;2023-04-02T10:16:50;98582.13;;;13.99;100.00
63715;BME280;49858;48.956;9.076;2023-04-02T10:19:25;98588.00;;;13.94;100.00
63715;BME280;49858;48.956;9.076;2023-04-02T10:21:56;98583.13;;;14.83;100.00
63715;BME280;49858;48.956;9.076;2023-04-02T10:24:27;98585.75;;;14.11;100.00
63715;BME280;49858;48.956;9.076;2023-04-02T10:27:01;98593.31;;;13.36;100.00
63715;BME280;49858;48.956;9.076;2023-04-02T10:29:42;98590.22;;;14.74;100.00
63715;BME280;49858;48.956;9.076;2023-04-02T10:32:15;98583.72;;;14.52;100.00
63715;BME280;49858;48.956;9.076;2023-04-02T10:34:51;98588.78;;;15.05;100.00
63715;BME280;49858;48.956;9.076;2023-04-02T10:37:46;98581.09;;;14.77;100.00
63715;BME280;49858;48.956;9.076;2023-04-02T10:40:18;98601.47;;;13.59;100.00
63715;BME280;49858;48.956;9.076;2023-04-02T10:42:53;98601.81;;;13.94;100.00
63715;BME280;49858;48.956;9.076;2023-04-02T10:45:34;98600.69;;;13.99;100.00
63715;BME280;49858;48.956;9.076;2023-04-02T10:48:14;98597.78;;;14.84;100.00
63715;BME280;49858;48.956;9.076;2023-04-02T10:50:48;98607.44;;;13.27;100.00
63715;BME280;49858;48.956;9.076;2023-04-02T10:53:26;98607.03;;;15.17;100.00
63715;BME280;49858;48.956;9.076;2023-04-02T10:56:02;98616.25;;;13.10;100.00
63715;BME280;49858;48.956;9.076;2023-04-02T10:58:38;98625.34;;;12.80;100.00
63715;BME280;49858;48.956;9.076;2023-04-02T11:01:10;98618.50;;;12.70;100.00
63715;BME280;49858;48.956;9.076;2023-04-02T11:03:43;98627.00;;;12.88;100.00
63715;BME280;49858;48.956;9.076;2023-04-02T11:06:16;98630.34;;;13.31;100.00
63715;BME280;49858;48.956;9.076;2023-04-02T11:08:47;98632.91;;;12.87;100.00
63715;BME280;49858;48.956;9.076;2023-04-02T11:11:19;98626.44;;;14.51;100.00
63715;BME280;49858;48.956;9.076;2023-04-02T11:13:51;98628.31;;;15.86;100.00
63715;BME280;49858;48.956;9.076;2023-04-02T11:16:21;98624.38;;;16.26;100.00
63715;BME280;49858;48.956;9.076;2023-04-02T11:19:24;98633.28;;;15.44;100.00
63715;BME280;49858;48.956;9.076;2023-04-02T11:21:54;98631.41;;;15.70;100.00
63715;BME280;49858;48.956;9.076;2023-04-02T11:24:42;98631.31;;;15.45;100.00
63715;BME280;49858;48.956;9.076;2023-04-02T11:27:21;98638.03;;;15.47;100.00
63715;BME280;49858;48.956;9.076;2023-04-02T11:29:51;98639.44;;;15.02;100.00
63715;BME280;49858;48.956;9.076;2023-04-02T11:32:34;98649.47;;;15.31;100.00
63715;BME280;49858;48.956;9.076;2023-04-02T11:35:34;98649.72;;;15.05;100.00
63715;BME280;49858;48.956;9.076;2023-04-02T11:44:23;98656.94;;;15.20;100.00
63715;BME280;49858;48.956;9.076;2023-04-02T11:47:13;98664.25;;;14.84;100.00
63715;BME280;49858;48.956;9.076;2023-04-02T11:49:59;98664.06;;;14.59;100.00
63715;BME280;49858;48.956;9.076;2023-04-02T11:52:31;98663.50;;;14.43;100.00
63715;BME280;49858;48.956;9.076;2023-04-02T11:55:04;98672.28;;;14.07;100.00
63715;BME280;49858;48.956;9.076;2023-04-02T11:57:50;98672.81;;;14.65;100.00
63715;BME280;49858;48.956;9.076;2023-04-02T12:03:23;98677.97;;;14.22;100.00
63715;BME280;49858;48.956;9.076;2023-04-02T12:06:00;98681.81;;;13.76;100.00
63715;BME280;49858;48.956;9.076;2023-04-02T12:08:39;98687.75;;;14.16;100.00
63715;BME280;49858;48.956;9.076;2023-04-02T12:11:30;98692.34;;;14.42;100.00
63715;BME280;49858;48.956;9.076;2023-04-02T12:14:02;98684.41;;;14.85;100.00
63715;BME280;49858;48.956;9.076;2023-04-02T12:16:33;98693.91;;;14.83;100.00
63715;BME280;49858;48.956;9.076;2023-04-02T12:19:07;98689.41;;;15.20;100.00
63715;BME280;49858;48.956;9.076;2023-04-02T12:21:36;98695.25;;;15.07;100.00
63715;BME280;49858;48.956;9.076;2023-04-02T12:24:04;98686.09;;;14.96;100.00
63715;BME280;49858;48.956;9.076;2023-04-02T12:26:35;98693.78;;;14.66;100.00
63715;BME280;49858;48.956;9.076;2023-04-02T12:29:15;98690.75;;;14.85;100.00
63715;BME280;49858;48.956;9.076;2023-04-02T12:31:44;98694.16;;;14.68;100.00
63715;BME280;49858;48.956;9.076;2023-04-02T12:34:13;98709.38;;;14.03;100.00
63715;BME280;49858;48.956;9.076;2023-04-02T12:36:53;98710.09;;;13.63;100.00
63715;BME280;49858;48.956;9.076;2023-04-02T12:39:21;98718.72;;;13.58;100.00
63715;BME280;49858;48.956;9.076;2023-04-02T12:41:53;98725.59;;;13.41;100.00
63715;BME280;49858;48.956;9.076;2023-04-02T12:44:24;98731.31;;;13.25;100.00
63715;BME280;49858;48.956;9.076;2023-04-02T12:46:52;98731.47;;;13.09;100.00
63715;BME280;49858;48.956;9.076;2023-04-02T12:49:33;98739.88;;;13.20;100.00
63715;BME280;49858;48.956;9.076;2023-04-02T12:52:05;98741.88;;;13.19;100.00
63715;BME280;49858;48.956;9.076;2023-04-02T12:54:35;98746.81;;;12.84;100.00
63715;BME280;49858;48.956;9.076;2023-04-02T12:57:31;98751.00;;;12.74;100.00
63715;BME280;49858;48.956;9.076;2023-04-02T13:00:25;98755.09;;;12.57;100.00
63715;BME280;49858;48.956;9.076;2023-04-02T13:02:58;98762.88;;;12.51;100.00
63715;BME280;49858;48.956;9.076;2023-04-02T13:05:32;98756.22;;;12.79;100.00
63715;BME280;49858;48.956;9.076;2023-04-02T13:08:01;98759.28;;;12.74;100.00
63715;BME280;49858;48.956;9.076;2023-04-02T13:10:29;98772.13;;;12.63;100.00
63715;BME280;49858;48.956;9.076;2023-04-02T13:12:59;98766.53;;;12.59;100.00
63715;BME280;49858;48.956;9.076;2023-04-02T13:15:30;98774.44;;;12.61;100.00
63715;BME280;49858;48.956;9.076;2023-04-02T13:18:04;98779.13;;;12.57;100.00
63715;BME280;49858;48.956;9.076;2023-04-02T13:20:34;98775.97;;;12.81;100.00
63715;BME280;49858;48.956;9.076;2023-04-02T13:23:30;98775.97;;;12.35;100.00
63715;BME280;49858;48.956;9.076;2023-04-02T13:25:59;98780.75;;;12.38;100.00
63715;BME280;49858;48.956;9.076;2023-04-02T13:28:27;98786.22;;;12.58;100.00
63715;BME280;49858;48.956;9.076;2023-04-02T13:30:56;98775.66;;;12.86;100.00
63715;BME280;49858;48.956;9.076;2023-04-02T13:33:26;98791.00;;;12.61;100.00
63715;BME280;49858;48.956;9.076;2023-04-02T13:35:54;98800.59;;;12.67;100.00
63715;BME280;49858;48.956;9.076;2023-04-02T13:38:22;98794.25;;;12.43;100.00